Time;durP1;ratioP1;P1;durP2;ratioP2;P2;SDS_P1;SDS_P2;PMS_P1;PMS_P2;Temp;Humidity;BMP_temperature;BMP_pressure;BME280_temperature;BME280_humidity;BME280_pressure;Samples;Min_cycle;Max_cycle;Signal;HPM_P1;HPM_P2
2022/07/12 00:01:59;;;;;;;1.15;1.02;;;;;;;;;;5073965;28;20446;-83
2022/07/12 00:04:26;;;;;;;1.20;1.00;;;;;;;;;;5074294;28;20459;-84
2022/07/12 00:06:53;;;;;;;1.85;1.10;;;;;;;;;;5074201;28;20048;-84
2022/07/12 00:09:20;;;;;;;1.33;1.15;;;;;;;;;;5074233;28;20082;-84
2022/07/12 00:11:48;;;;;;;1.27;1.25;;;;;;;;;;5074108;28;20048;-84
2022/07/12 00:14:15;;;;;;;0.98;0.95;;;;;;;;;;5091771;28;20075;-84
2022/07/12 00:16:42;;;;;;;2.20;1.10;;;;;;;;;;5074060;28;20052;-84
2022/07/12 00:19:09;;;;;;;1.33;1.08;;;;;;;;;;5092059;28;20416;-81
2022/07/12 00:21:37;;;;;;;1.10;1.10;;;;;;;;;;5073956;28;20130;-83
2022/07/12 00:24:04;;;;;;;1.20;0.90;;;;;;;;;;5074044;28;20083;-84
2022/07/12 00:26:31;;;;;;;2.63;1.17;;;;;;;;;;5073637;28;20048;-83
2022/07/12 00:28:58;;;;;;;0.80;0.80;;;;;;;;;;5073777;28;20572;-84
2022/07/12 00:31:25;;;;;;;0.90;0.90;;;;;;;;;;5091254;28;20473;-84
2022/07/12 00:33:53;;;;;;;1.05;0.95;;;;;;;;;;5092773;28;20058;-83
2022/07/12 00:36:20;;;;;;;1.73;0.93;;;;;;;;;;5077426;28;20134;-84
2022/07/12 00:38:47;;;;;;;0.70;0.70;;;;;;;;;;5077230;28;20071;-85
2022/07/12 00:41:15;;;;;;;0.95;0.80;;;;;;;;;;5077294;28;20086;-84
2022/07/12 00:43:42;;;;;;;1.23;1.02;;;;;;;;;;5095142;28;20503;-84
2022/07/12 00:46:10;;;;;;;2.05;0.98;;;;;;;;;;5077296;28;20135;-84
2022/07/12 00:48:38;;;;;;;0.80;0.73;;;;;;;;;;5095532;28;20051;-84
2022/07/12 00:51:05;;;;;;;1.08;1.08;;;;;;;;;;5095180;28;20052;-84
2022/07/12 00:53:32;;;;;;;2.65;0.80;;;;;;;;;;5077152;28;20048;-84
2022/07/12 00:56:00;;;;;;;1.67;1.02;;;;;;;;;;5076735;28;20441;-84
2022/07/12 00:58:27;;;;;;;2.58;1.00;;;;;;;;;;5095060;28;20071;-84
2022/07/12 01:00:56;;;;;;;1.08;1.08;;;;;;;;;;5094982;28;20462;-83
2022/07/12 01:03:23;;;;;;;1.27;1.05;;;;;;;;;;5076711;28;20563;-84
2022/07/12 01:05:51;;;;;;;2.10;0.80;;;;;;;;;;5077060;28;20477;-84
2022/07/12 01:08:18;;;;;;;1.73;1.02;;;;;;;;;;5076888;28;20059;-83
2022/07/12 01:10:46;;;;;;;1.20;1.02;;;;;;;;;;5076837;28;20040;-84
2022/07/12 01:13:14;;;;;;;1.35;1.25;;;;;;;;;;5077144;28;20051;-84
2022/07/12 01:15:42;;;;;;;1.10;1.10;;;;;;;;;;5094771;28;20500;-84
2022/07/12 01:18:09;;;;;;;1.00;1.00;;;;;;;;;;5076995;28;20048;-84
2022/07/12 01:20:37;;;;;;;1.23;1.23;;;;;;;;;;5076535;28;20050;-84
2022/07/12 01:23:04;;;;;;;1.85;1.00;;;;;;;;;;5094464;28;20048;-85
2022/07/12 01:25:31;;;;;;;1.08;1.08;;;;;;;;;;5094482;28;20084;-84
2022/07/12 01:27:58;;;;;;;2.25;1.02;;;;;;;;;;5094625;28;20082;-85
2022/07/12 01:30:26;;;;;;;1.00;1.00;;;;;;;;;;5076577;28;20503;-82
2022/07/12 01:32:53;;;;;;;1.10;1.10;;;;;;;;;;5093911;28;20457;-84
2022/07/12 01:35:22;;;;;;;1.00;1.00;;;;;;;;;;5076440;28;20406;-84
2022/07/12 01:37:49;;;;;;;2.05;1.35;;;;;;;;;;5076229;28;20060;-84
2022/07/12 01:40:17;;;;;;;1.83;1.20;;;;;;;;;;5076318;28;20464;-84
2022/07/12 01:42:45;;;;;;;1.70;1.60;;;;;;;;;;5093978;28;20048;-83
2022/07/12 01:45:12;;;;;;;2.38;1.30;;;;;;;;;;5093246;28;20084;-84
2022/07/12 01:47:40;;;;;;;1.50;1.40;;;;;;;;;;5075917;28;20052;-83
2022/07/12 01:50:08;;;;;;;1.40;1.40;;;;;;;;;;5076098;28;20090;-83
2022/07/12 01:52:41;;;;;;;1.23;1.17;;;;;;;;;;5075929;28;20131;-83
2022/07/12 01:55:09;;;;;;;2.00;1.60;;;;;;;;;;5093854;28;20040;-84
2022/07/12 01:57:38;;;;;;;3.55;1.60;;;;;;;;;;5075893;28;20094;-84
2022/07/12 02:00:06;;;;;;;1.48;1.45;;;;;;;;;;5094018;28;20087;-83
2022/07/12 02:02:33;;;;;;;1.50;1.40;;;;;;;;;;5093532;28;20056;-83
2022/07/12 02:05:01;;;;;;;1.50;1.50;;;;;;;;;;5075640;28;20076;-83
2022/07/12 02:07:36;;;;;;;1.35;1.15;;;;;;;;;;5093858;28;20087;-83
2022/07/12 02:10:05;;;;;;;1.65;1.50;;;;;;;;;;5075822;28;20484;-81
2022/07/12 02:12:33;;;;;;;1.48;1.42;;;;;;;;;;5093365;28;20086;-83
2022/07/12 02:15:00;;;;;;;3.33;2.63;;;;;;;;;;5075303;28;20568;-83
2022/07/12 02:17:27;;;;;;;2.33;2.13;;;;;;;;;;5075253;28;20056;-84
2022/07/12 02:19:54;;;;;;;3.00;2.80;;;;;;;;;;5075582;28;20052;-84
2022/07/12 02:22:21;;;;;;;3.33;3.08;;;;;;;;;;5093469;28;20477;-81
2022/07/12 02:24:49;;;;;;;1.95;1.85;;;;;;;;;;5075234;28;20506;-83
2022/07/12 02:27:17;;;;;;;2.00;1.90;;;;;;;;;;5093234;28;20097;-83
2022/07/12 02:29:44;;;;;;;1.98;1.88;;;;;;;;;;5075338;28;20097;-81
2022/07/12 02:32:11;;;;;;;2.28;1.67;;;;;;;;;;5092989;28;20101;-84
2022/07/12 02:34:38;;;;;;;1.75;1.65;;;;;;;;;;5093047;28;20083;-82
2022/07/12 02:37:05;;;;;;;1.63;1.52;;;;;;;;;;5075541;28;20461;-81
2022/07/12 02:39:32;;;;;;;3.10;1.90;;;;;;;;;;5075234;28;20135;-83
2022/07/12 02:42:00;;;;;;;4.97;1.73;;;;;;;;;;5074681;28;20120;-83
2022/07/12 02:44:27;;;;;;;2.30;1.70;;;;;;;;;;5092655;28;20514;-81
2022/07/12 02:46:54;;;;;;;1.70;1.70;;;;;;;;;;5092936;28;20056;-84
2022/07/12 02:49:21;;;;;;;2.40;1.40;;;;;;;;;;5075435;28;20067;-84
2022/07/12 02:51:48;;;;;;;3.53;1.65;;;;;;;;;;5074747;28;20098;-83
2022/07/12 02:54:15;;;;;;;1.70;1.63;;;;;;;;;;5074896;28;20048;-84
2022/07/12 02:56:42;;;;;;;1.77;1.55;;;;;;;;;;5074429;28;20079;-84
2022/07/12 02:59:10;;;;;;;1.70;1.60;;;;;;;;;;5092824;28;20682;-84
2022/07/12 03:01:37;;;;;;;1.65;1.40;;;;;;;;;;5092821;28;20139;-84
2022/07/12 03:04:04;;;;;;;1.20;1.20;;;;;;;;;;5092750;28;20048;-84
2022/07/12 03:06:31;;;;;;;1.77;1.42;;;;;;;;;;5092623;28;20079;-83
2022/07/12 03:08:58;;;;;;;2.05;1.88;;;;;;;;;;5092521;28;20044;-84
2022/07/12 03:11:25;;;;;;;1.80;1.70;;;;;;;;;;5074509;28;20040;-81
2022/07/12 03:13:53;;;;;;;2.05;1.52;;;;;;;;;;5092539;28;20084;-84
2022/07/12 03:16:20;;;;;;;1.88;1.50;;;;;;;;;;5092616;28;20071;-81
2022/07/12 03:18:47;;;;;;;1.70;1.60;;;;;;;;;;5074578;28;20125;-84
2022/07/12 03:21:15;;;;;;;1.90;1.20;;;;;;;;;;5074636;28;20044;-84
2022/07/12 03:23:44;;;;;;;1.40;1.30;;;;;;;;;;5092201;28;20492;-84
2022/07/12 03:26:11;;;;;;;1.85;1.75;;;;;;;;;;5092246;28;20048;-84
2022/07/12 03:28:38;;;;;;;2.17;1.30;;;;;;;;;;5092452;28;20059;-84
2022/07/12 03:31:05;;;;;;;1.88;1.42;;;;;;;;;;5091874;28;20083;-84
2022/07/12 03:33:33;;;;;;;1.60;1.50;;;;;;;;;;5074576;28;20052;-84
2022/07/12 03:36:01;;;;;;;1.50;1.40;;;;;;;;;;5092023;28;20396;-84
2022/07/12 03:38:28;;;;;;;1.80;1.35;;;;;;;;;;5074216;28;20052;-84
2022/07/12 03:40:55;;;;;;;1.60;1.60;;;;;;;;;;5092167;28;20144;-84
2022/07/12 03:43:22;;;;;;;1.63;1.50;;;;;;;;;;5092166;28;20131;-83
2022/07/12 03:45:49;;;;;;;1.67;1.65;;;;;;;;;;5092202;28;20052;-84
2022/07/12 03:48:16;;;;;;;2.22;2.03;;;;;;;;;;5074242;28;20048;-84
2022/07/12 03:50:45;;;;;;;2.17;2.08;;;;;;;;;;5073747;28;20082;-83
2022/07/12 03:53:13;;;;;;;3.10;2.22;;;;;;;;;;5074285;28;20488;-83
2022/07/12 03:55:40;;;;;;;2.65;2.30;;;;;;;;;;5092083;28;20067;-83
2022/07/12 03:58:07;;;;;;;5.82;2.67;;;;;;;;;;5074217;28;20094;-83
2022/07/12 04:00:34;;;;;;;3.40;3.10;;;;;;;;;;5074210;28;20125;-83
2022/07/12 04:03:01;;;;;;;5.68;4.38;;;;;;;;;;5073964;28;20135;-84
2022/07/12 04:05:29;;;;;;;6.60;3.97;;;;;;;;;;5091558;28;20080;-83
2022/07/12 04:07:56;;;;;;;4.68;4.20;;;;;;;;;;5074185;28;20094;-83
2022/07/12 04:10:24;;;;;;;6.35;5.00;;;;;;;;;;5095567;28;20048;-83
2022/07/12 04:12:51;;;;;;;7.30;6.47;;;;;;;;;;5077928;28;20563;-83
2022/07/12 04:15:19;;;;;;;5.13;4.72;;;;;;;;;;5077658;28;20523;-83
2022/07/12 04:17:46;;;;;;;2.15;2.05;;;;;;;;;;5095650;28;20506;-83
2022/07/12 04:20:13;;;;;;;1.10;1.10;;;;;;;;;;5077961;28;20121;-83
2022/07/12 04:22:40;;;;;;;6.80;1.63;;;;;;;;;;5095697;28;20504;-83
2022/07/12 04:25:08;;;;;;;6.72;1.30;;;;;;;;;;5077517;28;20182;-82
2022/07/12 04:27:36;;;;;;;0.90;0.90;;;;;;;;;;5095668;28;20130;-83
2022/07/12 04:30:03;;;;;;;1.13;1.13;;;;;;;;;;5077545;28;20059;-83
2022/07/12 04:32:31;;;;;;;3.13;1.10;;;;;;;;;;5077028;28;20043;-83
2022/07/12 04:34:58;;;;;;;1.17;1.13;;;;;;;;;;5095370;28;20086;-83
2022/07/12 04:37:25;;;;;;;1.30;1.20;;;;;;;;;;5077543;28;20044;-83
2022/07/12 04:39:52;;;;;;;1.60;1.50;;;;;;;;;;5077786;28;20101;-83
2022/07/12 04:42:20;;;;;;;0.90;0.90;;;;;;;;;;5077508;28;20519;-83
2022/07/12 04:44:47;;;;;;;3.35;0.80;;;;;;;;;;5077205;28;20055;-84
2022/07/12 04:47:14;;;;;;;1.60;1.20;;;;;;;;;;5095435;28;20142;-83
2022/07/12 04:49:41;;;;;;;2.03;0.90;;;;;;;;;;5095543;28;20083;-84
2022/07/12 04:52:08;;;;;;;3.70;1.00;;;;;;;;;;5077551;28;20092;-84
2022/07/12 04:54:36;;;;;;;2.08;0.90;;;;;;;;;;5077409;28;20052;-84
2022/07/12 04:57:03;;;;;;;1.27;0.70;;;;;;;;;;5095487;28;20455;-83
2022/07/12 04:59:30;;;;;;;1.10;0.80;;;;;;;;;;5095075;28;20620;-84
2022/07/12 05:01:57;;;;;;;1.50;0.80;;;;;;;;;;5077033;28;20144;-84
2022/07/12 05:04:25;;;;;;;2.08;0.70;;;;;;;;;;5077060;28;20044;-84
2022/07/12 05:06:52;;;;;;;4.18;1.30;;;;;;;;;;5077216;28;20442;-84
2022/07/12 05:09:19;;;;;;;1.30;1.17;;;;;;;;;;5077350;28;20102;-84
2022/07/12 05:11:47;;;;;;;0.80;0.70;;;;;;;;;;5076886;28;20135;-84
2022/07/12 05:14:14;;;;;;;0.75;0.75;;;;;;;;;;5076663;28;20135;-84
2022/07/12 05:16:41;;;;;;;7.13;1.10;;;;;;;;;;5095055;28;20044;-83
2022/07/12 05:19:09;;;;;;;1.95;1.00;;;;;;;;;;5076991;28;20055;-84
2022/07/12 05:21:36;;;;;;;0.88;0.88;;;;;;;;;;5094821;28;20082;-84
2022/07/12 05:24:03;;;;;;;0.80;0.80;;;;;;;;;;5094660;28;20575;-84
2022/07/12 05:26:31;;;;;;;2.80;1.02;;;;;;;;;;5076668;28;20047;-83
2022/07/12 05:28:58;;;;;;;4.05;1.30;;;;;;;;;;5094820;28;20458;-83
2022/07/12 05:31:26;;;;;;;0.70;0.60;;;;;;;;;;5094452;28;20048;-83
2022/07/12 05:33:53;;;;;;;1.02;0.80;;;;;;;;;;5076841;28;20052;-83
2022/07/12 05:36:21;;;;;;;2.60;0.90;;;;;;;;;;5094657;28;20117;-83
2022/07/12 05:38:48;;;;;;;2.92;1.02;;;;;;;;;;5076596;28;20090;-83
2022/07/12 05:41:15;;;;;;;3.53;0.93;;;;;;;;;;5094210;28;20051;-84
2022/07/12 05:43:43;;;;;;;2.20;0.80;;;;;;;;;;5075212;28;20488;-83
2022/07/12 05:46:11;;;;;;;1.27;0.52;;;;;;;;;;5076354;28;20105;-83
2022/07/12 05:48:39;;;;;;;0.80;0.80;;;;;;;;;;5094400;28;20052;-83
2022/07/12 05:53:51;;;;;;;8.20;2.50;;;;;;;;;;5094276;28;20095;-83
2022/07/12 05:56:19;;;;;;;10.02;2.80;;;;;;;;;;5076172;28;20080;-84
2022/07/12 05:58:46;;;;;;;8.82;2.72;;;;;;;;;;5094145;28;20048;-84
2022/07/12 06:01:13;;;;;;;13.82;2.00;;;;;;;;;;5076136;28;20143;-84
2022/07/12 06:03:40;;;;;;;6.70;1.70;;;;;;;;;;5094006;28;20423;-84
2022/07/12 06:06:07;;;;;;;9.90;5.60;;;;;;;;;;5094183;28;20143;-84
2022/07/12 06:08:35;;;;;;;23.05;6.55;;;;;;;;;;5075888;28;20126;-83
2022/07/12 06:11:02;;;;;;;6.10;3.72;;;;;;;;;;5093880;28;20052;-84
2022/07/12 06:13:29;;;;;;;9.30;2.95;;;;;;;;;;5076111;28;20084;-84
2022/07/12 06:15:56;;;;;;;6.35;3.08;;;;;;;;;;5093734;28;20052;-84
2022/07/12 06:18:24;;;;;;;13.00;3.28;;;;;;;;;;5075835;28;20052;-82
2022/07/12 06:20:51;;;;;;;7.68;2.42;;;;;;;;;;5075766;28;20055;-82
2022/07/12 06:23:18;;;;;;;20.00;5.95;;;;;;;;;;5075741;28;20079;-86
2022/07/12 06:25:45;;;;;;;23.70;5.78;;;;;;;;;;5093512;28;20044;-85
2022/07/12 06:28:21;;;;;;;12.63;3.95;;;;;;;;;;5093788;28;20444;-85
2022/07/12 06:30:48;;;;;;;8.98;3.35;;;;;;;;;;5075670;28;20496;-82
2022/07/12 06:33:16;;;;;;;13.65;3.33;;;;;;;;;;5074720;28;20048;-84
2022/07/12 06:35:43;;;;;;;12.02;3.13;;;;;;;;;;5075268;28;20083;-85
2022/07/12 06:38:10;;;;;;;11.48;3.38;;;;;;;;;;5075471;28;20067;-83
2022/07/12 06:40:37;;;;;;;7.03;2.33;;;;;;;;;;5075412;28;20452;-83
2022/07/12 06:43:09;;;;;;;7.18;2.33;;;;;;;;;;5075443;28;20068;-83
2022/07/12 06:45:36;;;;;;;10.18;2.90;;;;;;;;;;5075155;28;20094;-85
2022/07/12 06:48:05;;;;;;;5.70;2.10;;;;;;;;;;5093152;28;20584;-83
2022/07/12 06:50:32;;;;;;;3.78;1.50;;;;;;;;;;5093000;28;20496;-84
2022/07/12 06:53:00;;;;;;;4.25;1.33;;;;;;;;;;5093174;28;20079;-83
2022/07/12 06:55:27;;;;;;;2.05;1.17;;;;;;;;;;5075371;28;20044;-83
2022/07/12 06:57:54;;;;;;;2.13;1.00;;;;;;;;;;5075471;28;20116;-83
2022/07/12 07:00:21;;;;;;;4.70;1.20;;;;;;;;;;5093334;28;20082;-83
2022/07/12 07:02:48;;;;;;;1.75;0.80;;;;;;;;;;5074840;28;20080;-84
2022/07/12 07:05:17;;;;;;;2.38;1.00;;;;;;;;;;5075030;28;20044;-85
2022/07/12 07:07:45;;;;;;;1.40;0.70;;;;;;;;;;5093049;28;20048;-85
2022/07/12 07:10:12;;;;;;;0.80;0.70;;;;;;;;;;5093475;28;20048;-87
2022/07/12 07:12:39;;;;;;;0.70;0.60;;;;;;;;;;5075155;28;20093;-83
2022/07/12 07:15:06;;;;;;;1.35;0.60;;;;;;;;;;5075708;28;20048;-85
2022/07/12 07:17:34;;;;;;;1.60;0.60;;;;;;;;;;5075311;28;20476;-81
2022/07/12 07:20:02;;;;;;;0.65;0.60;;;;;;;;;;5075257;28;20500;-83
2022/07/12 07:22:29;;;;;;;0.68;0.68;;;;;;;;;;5075072;28;20052;-82
2022/07/12 07:24:56;;;;;;;0.85;0.50;;;;;;;;;;5074817;28;20089;-84
2022/07/12 07:27:24;;;;;;;2.03;0.80;;;;;;;;;;5093415;28;20075;-83
2022/07/12 07:32:37;;;;;;;2.28;0.60;;;;;;;;;;5092552;28;20488;-86
2022/07/12 07:35:05;;;;;;;1.02;0.60;;;;;;;;;;5092780;28;20492;-84
2022/07/12 07:37:33;;;;;;;5.50;0.80;;;;;;;;;;5075304;28;20070;-84
2022/07/12 07:40:00;;;;;;;0.70;0.50;;;;;;;;;;5092975;28;20041;-84
2022/07/12 07:42:28;;;;;;;1.10;0.65;;;;;;;;;;5074689;28;20079;-83
2022/07/12 07:44:55;;;;;;;4.70;0.80;;;;;;;;;;5076983;28;20078;-83
2022/07/12 07:47:43;;;;;;;0.93;0.60;;;;;;;;;;5081661;28;20070;-84
2022/07/12 07:50:30;;;;;;;0.73;0.73;;;;;;;;;;5082214;28;20058;-84
2022/07/12 07:52:58;;;;;;;0.65;0.57;;;;;;;;;;5096556;28;20058;-84
2022/07/12 07:55:25;;;;;;;0.60;0.50;;;;;;;;;;5078753;28;20052;-83
2022/07/12 07:57:52;;;;;;;3.80;0.90;;;;;;;;;;5096758;28;20071;-85
2022/07/12 08:00:20;;;;;;;0.45;0.45;;;;;;;;;;5079062;28;20407;-85
2022/07/12 08:02:47;;;;;;;1.40;0.50;;;;;;;;;;5078773;28;20110;-85
2022/07/12 08:05:14;;;;;;;2.65;0.50;;;;;;;;;;5096394;28;20143;-86
2022/07/12 08:07:42;;;;;;;0.85;0.40;;;;;;;;;;5078279;28;20447;-86
2022/07/12 08:10:21;;;;;;;2.72;0.47;;;;;;;;;;5096542;28;20048;-84
2022/07/12 08:12:48;;;;;;;0.32;0.28;;;;;;;;;;5078436;28;20044;-85
2022/07/12 08:15:15;;;;;;;0.30;0.28;;;;;;;;;;5078567;28;20087;-86
2022/07/12 08:17:42;;;;;;;1.73;0.30;;;;;;;;;;5096253;28;20072;-86
2022/07/12 08:20:19;;;;;;;0.98;0.40;;;;;;;;;;5096741;28;20537;-85
2022/07/12 08:23:06;;;;;;;2.75;0.50;;;;;;;;;;5081536;28;20415;-87
2022/07/12 08:25:33;;;;;;;0.50;0.32;;;;;;;;;;5078054;28;20080;-83
2022/07/12 08:28:00;;;;;;;0.57;0.50;;;;;;;;;;5078119;28;20551;-84
2022/07/12 08:30:27;;;;;;;0.70;0.20;;;;;;;;;;5078283;28;20135;-86
2022/07/12 08:32:55;;;;;;;1.00;0.30;;;;;;;;;;5095870;28;20079;-85
2022/07/12 08:35:23;;;;;;;0.85;0.38;;;;;;;;;;5078115;28;20467;-85
2022/07/12 08:37:50;;;;;;;1.63;0.52;;;;;;;;;;5078062;28;20082;-90
2022/07/12 08:40:18;;;;;;;0.20;0.20;;;;;;;;;;5077986;28;20140;-83
2022/07/12 08:42:47;;;;;;;0.40;0.40;;;;;;;;;;5095893;28;20079;-82
2022/07/12 08:45:15;;;;;;;0.20;0.20;;;;;;;;;;5095956;28;20485;-89
2022/07/12 08:47:43;;;;;;;0.85;0.32;;;;;;;;;;5095652;28;20071;-84
2022/07/12 08:50:16;;;;;;;1.30;0.40;;;;;;;;;;5077958;28;20063;-85
2022/07/12 08:52:45;;;;;;;3.30;0.32;;;;;;;;;;5095733;28;20407;-85
2022/07/12 08:55:17;;;;;;;1.30;0.40;;;;;;;;;;5077054;28;20117;-83
2022/07/12 08:57:45;;;;;;;0.63;0.30;;;;;;;;;;5095432;28;20602;-83
2022/07/12 09:00:12;;;;;;;0.30;0.25;;;;;;;;;;5095849;28;20110;-89
2022/07/12 09:02:50;;;;;;;2.08;0.38;;;;;;;;;;5078123;28;20147;-86
2022/07/12 09:05:22;;;;;;;3.65;0.52;;;;;;;;;;5077291;28;20496;-83
2022/07/12 09:07:49;;;;;;;1.13;0.50;;;;;;;;;;5077647;28;20075;-83
2022/07/12 09:10:17;;;;;;;0.20;0.20;;;;;;;;;;5077442;28;20052;-84
2022/07/12 09:12:45;;;;;;;1.15;0.30;;;;;;;;;;5077680;28;20550;-83
2022/07/12 09:15:14;;;;;;;1.45;0.20;;;;;;;;;;5095374;28;20052;-86
2022/07/12 09:17:46;;;;;;;0.43;0.30;;;;;;;;;;5077428;28;20044;-84
2022/07/12 09:20:15;;;;;;;0.30;0.28;;;;;;;;;;5077526;28;20136;-90
2022/07/12 09:22:51;;;;;;;1.75;0.20;;;;;;;;;;5077209;28;20052;-85
2022/07/12 09:25:18;;;;;;;0.55;0.32;;;;;;;;;;5077209;28;20097;-86
2022/07/12 09:27:51;;;;;;;0.10;0.10;;;;;;;;;;5095028;28;20040;-84
2022/07/12 09:30:19;;;;;;;1.10;0.20;;;;;;;;;;5095147;28;20048;-85
2022/07/12 09:36:07;;;;;;;0.20;0.20;;;;;;;;;;5094939;28;20420;-85
2022/07/12 09:38:36;;;;;;;1.20;0.20;;;;;;;;;;5094832;28;20408;-84
2022/07/12 09:41:06;;;;;;;0.30;0.30;;;;;;;;;;5095393;28;20080;-94
2022/07/12 09:43:33;;;;;;;0.75;0.20;;;;;;;;;;5076910;28;20079;-85
2022/07/12 09:46:01;;;;;;;1.25;0.20;;;;;;;;;;5076632;28;20527;-86
2022/07/12 09:48:28;;;;;;;0.10;0.10;;;;;;;;;;5077757;28;20109;-86
2022/07/12 09:50:57;;;;;;;1.90;0.20;;;;;;;;;;5094665;28;20511;-85
2022/07/12 09:53:28;;;;;;;1.65;0.30;;;;;;;;;;5076829;28;20101;-85
2022/07/12 09:55:55;;;;;;;0.25;0.25;;;;;;;;;;5077652;28;20072;-84
2022/07/12 09:58:27;;;;;;;0.28;0.28;;;;;;;;;;5094490;28;20074;-83
2022/07/12 10:00:54;;;;;;;1.25;0.20;;;;;;;;;;5077003;28;20105;-88
2022/07/12 10:03:23;;;;;;;0.57;0.20;;;;;;;;;;5076735;28;20143;-84
2022/07/12 10:05:52;;;;;;;0.20;0.17;;;;;;;;;;5093584;28;20052;-86
2022/07/12 10:08:22;;;;;;;0.30;0.20;;;;;;;;;;5075662;28;20511;-84
2022/07/12 10:10:49;;;;;;;2.42;0.35;;;;;;;;;;5093704;28;20135;-87
2022/07/12 10:13:18;;;;;;;0.20;0.20;;;;;;;;;;5076295;28;20134;-84
2022/07/12 10:15:46;;;;;;;0.25;0.25;;;;;;;;;;5093898;28;20059;-83
2022/07/12 10:18:20;;;;;;;0.45;0.45;;;;;;;;;;5094081;28;20080;-90
2022/07/12 10:20:48;;;;;;;0.13;0.13;;;;;;;;;;5093973;28;20113;-83
2022/07/12 10:23:34;;;;;;;1.85;0.50;;;;;;;;;;5076360;28;20052;-85
2022/07/12 10:26:02;;;;;;;0.30;0.30;;;;;;;;;;5093727;28;20051;-86
2022/07/12 10:28:48;;;;;;;0.73;0.50;;;;;;;;;;5075968;28;20385;-86
2022/07/12 10:31:16;;;;;;;0.38;0.38;;;;;;;;;;5093524;28;20488;-84
2022/07/12 10:33:43;;;;;;;1.55;0.30;;;;;;;;;;5093509;28;20059;-86
2022/07/12 10:36:10;;;;;;;1.83;0.40;;;;;;;;;;5093992;28;20055;-87
2022/07/12 10:38:41;;;;;;;0.70;0.10;;;;;;;;;;5076682;28;20056;-87
2022/07/12 10:41:18;;;;;;;0.10;0.05;;;;;;;;;;5076709;28;20476;-83
2022/07/12 10:44:04;;;;;;;0.70;0.25;;;;;;;;;;5094011;28;20484;-84
2022/07/12 10:46:33;;;;;;;0.45;0.20;;;;;;;;;;5075734;28;20048;-84
2022/07/12 10:49:19;;;;;;;1.15;0.40;;;;;;;;;;5076278;28;20147;-83
2022/07/12 10:52:05;;;;;;;0.52;0.20;;;;;;;;;;5093483;28;20236;-88
2022/07/12 10:54:32;;;;;;;1.65;0.25;;;;;;;;;;5075699;28;20086;-84
2022/07/12 10:56:59;;;;;;;0.20;0.20;;;;;;;;;;5075747;28;20075;-85
2022/07/12 10:59:27;;;;;;;1.30;0.30;;;;;;;;;;5075615;28;20071;-83
2022/07/12 11:01:56;;;;;;;0.20;0.20;;;;;;;;;;5093937;28;20051;-87
2022/07/12 11:04:24;;;;;;;0.45;0.45;;;;;;;;;;5075384;28;20044;-86
2022/07/12 11:06:55;;;;;;;0.90;0.22;;;;;;;;;;5074913;28;20060;-85
2022/07/12 11:09:22;;;;;;;0.77;0.20;;;;;;;;;;5075239;28;20518;-85
2022/07/12 11:11:50;;;;;;;1.00;0.38;;;;;;;;;;5092837;28;20100;-85
2022/07/12 11:14:25;;;;;;;0.30;0.22;;;;;;;;;;5093214;28;20044;-82
2022/07/12 11:16:53;;;;;;;0.50;0.35;;;;;;;;;;5075280;28;20138;-85
2022/07/12 11:19:24;;;;;;;0.60;0.30;;;;;;;;;;5075614;28;20530;-88
2022/07/12 11:21:55;;;;;;;1.25;0.30;;;;;;;;;;5075636;28;20582;-87
2022/07/12 11:24:23;;;;;;;0.80;0.30;;;;;;;;;;5075473;28;20056;-89
2022/07/12 11:26:50;;;;;;;1.23;0.30;;;;;;;;;;5076505;28;20082;-87
2022/07/12 11:29:18;;;;;;;0.28;0.20;;;;;;;;;;5075768;28;20044;-87
2022/07/12 11:31:45;;;;;;;0.90;0.30;;;;;;;;;;5075201;28;20067;-94
2022/07/12 11:34:20;;;;;;;0.98;0.20;;;;;;;;;;5075638;28;20047;-86
2022/07/12 11:36:47;;;;;;;0.30;0.30;;;;;;;;;;5076354;28;20101;-85
2022/07/12 11:39:14;;;;;;;1.88;0.20;;;;;;;;;;5075372;28;20071;-90
2022/07/12 11:41:55;;;;;;;1.17;0.25;;;;;;;;;;5075344;28;20075;-91
2022/07/12 11:44:27;;;;;;;0.65;0.20;;;;;;;;;;5075719;28;20086;-86
2022/07/12 11:47:00;;;;;;;1.42;0.30;;;;;;;;;;5075759;28;20105;-84
2022/07/12 11:49:27;;;;;;;0.95;0.20;;;;;;;;;;5074910;28;20052;-90
2022/07/12 11:51:54;;;;;;;1.05;0.20;;;;;;;;;;5074793;28;20397;-84
2022/07/12 11:54:25;;;;;;;2.85;0.30;;;;;;;;;;5075641;28;20044;-91
2022/07/12 11:57:09;;;;;;;1.67;0.38;;;;;;;;;;5075283;28;20120;-84
2022/07/12 11:59:36;;;;;;;0.32;0.20;;;;;;;;;;5075160;28;20044;-93
2022/07/12 12:02:11;;;;;;;0.38;0.20;;;;;;;;;;5076757;28;20056;-87
2022/07/12 12:04:44;;;;;;;0.52;0.20;;;;;;;;;;5075358;28;20048;-87
2022/07/12 12:07:16;;;;;;;2.90;0.55;;;;;;;;;;5092718;28;20047;-88
2022/07/12 12:10:01;;;;;;;0.30;0.20;;;;;;;;;;5075672;28;20492;-84
2022/07/12 12:12:36;;;;;;;3.72;0.38;;;;;;;;;;5074910;28;20051;-88
2022/07/12 12:15:04;;;;;;;2.50;0.30;;;;;;;;;;5074586;28;20084;-86
2022/07/12 12:17:32;;;;;;;0.55;0.52;;;;;;;;;;5074395;28;20047;-86
2022/07/12 12:20:08;;;;;;;1.27;0.30;;;;;;;;;;5074369;28;20420;-87
2022/07/12 12:22:35;;;;;;;1.02;0.32;;;;;;;;;;5074691;28;20044;-86
2022/07/12 12:25:04;;;;;;;3.28;0.25;;;;;;;;;;5092758;28;20473;-87
2022/07/12 12:27:31;;;;;;;0.30;0.30;;;;;;;;;;5074647;28;20063;-84
2022/07/12 12:30:18;;;;;;;0.98;0.30;;;;;;;;;;5078762;28;20063;-84
2022/07/12 12:32:46;;;;;;;0.10;0.10;;;;;;;;;;5096040;28;20063;-88
2022/07/12 12:35:15;;;;;;;2.15;0.25;;;;;;;;;;5078865;28;20095;-84
2022/07/12 12:37:52;;;;;;;1.27;0.20;;;;;;;;;;5078629;28;20086;-88
2022/07/12 12:40:24;;;;;;;3.22;0.65;;;;;;;;;;5078972;28;20052;-87
2022/07/12 12:43:07;;;;;;;0.63;0.20;;;;;;;;;;5079511;28;20530;-91
2022/07/12 12:45:34;;;;;;;2.25;0.40;;;;;;;;;;5078039;28;20040;-87
2022/07/12 12:48:02;;;;;;;0.20;0.20;;;;;;;;;;5078530;28;20457;-84
2022/07/12 12:50:56;;;;;;;0.95;0.20;;;;;;;;;;5077608;28;20076;-87
2022/07/12 12:53:25;;;;;;;2.20;0.20;;;;;;;;;;5075991;28;20055;-90
2022/07/12 12:55:55;;;;;;;0.20;0.20;;;;;;;;;;5078723;28;20055;-94
2022/07/12 12:58:23;;;;;;;1.13;0.22;;;;;;;;;;5078470;28;20491;-89
2022/07/12 13:00:51;;;;;;;0.57;0.20;;;;;;;;;;5078325;28;20129;-86
2022/07/12 13:03:20;;;;;;;0.52;0.15;;;;;;;;;;5078298;28;20050;-90
2022/07/12 13:05:47;;;;;;;0.10;0.10;;;;;;;;;;5077304;28;20048;-85
2022/07/12 13:08:16;;;;;;;0.22;0.20;;;;;;;;;;5078095;28;20068;-87
2022/07/12 13:10:44;;;;;;;0.68;0.20;;;;;;;;;;5077929;28;20056;-85
2022/07/12 13:13:15;;;;;;;0.30;0.30;;;;;;;;;;5078048;28;20067;-84
2022/07/12 13:15:45;;;;;;;1.85;0.20;;;;;;;;;;5095832;28;20139;-87
2022/07/12 13:18:14;;;;;;;1.42;0.20;;;;;;;;;;5077957;28;20134;-91
2022/07/12 13:20:42;;;;;;;0.80;0.25;;;;;;;;;;5078243;28;20557;-86
2022/07/12 13:23:09;;;;;;;1.30;0.25;;;;;;;;;;5078379;28;20071;-86
2022/07/12 13:25:37;;;;;;;1.90;0.20;;;;;;;;;;5078791;28;20047;-89
2022/07/12 13:28:04;;;;;;;0.20;0.10;;;;;;;;;;5078467;28;20044;-87
2022/07/12 13:30:31;;;;;;;0.32;0.30;;;;;;;;;;5077485;28;20523;-86
2022/07/12 13:32:58;;;;;;;1.25;0.38;;;;;;;;;;5077216;28;20078;-84
2022/07/12 13:35:29;;;;;;;2.00;0.50;;;;;;;;;;5077391;28;20454;-91
2022/07/12 13:37:56;;;;;;;1.63;0.20;;;;;;;;;;5078226;28;20134;-90
2022/07/12 13:40:24;;;;;;;1.15;0.25;;;;;;;;;;5077622;28;20079;-90
2022/07/12 13:42:52;;;;;;;0.57;0.20;;;;;;;;;;5077649;28;20063;-91
2022/07/12 13:45:22;;;;;;;0.20;0.20;;;;;;;;;;5077386;28;20052;-87
2022/07/12 13:47:50;;;;;;;1.27;0.10;;;;;;;;;;5077359;28;20051;-85
2022/07/12 13:50:19;;;;;;;2.47;0.13;;;;;;;;;;5077247;28;20044;-85
2022/07/12 13:52:47;;;;;;;2.45;0.43;;;;;;;;;;5077355;28;20055;-89
2022/07/12 13:55:15;;;;;;;0.40;0.10;;;;;;;;;;5095349;28;20499;-89
2022/07/12 13:57:42;;;;;;;0.40;0.20;;;;;;;;;;5077680;28;20052;-85
2022/07/12 14:00:11;;;;;;;0.65;0.28;;;;;;;;;;5077554;28;20048;-86
2022/07/12 14:02:40;;;;;;;1.70;0.15;;;;;;;;;;5077562;28;20055;-88
2022/07/12 14:05:09;;;;;;;0.88;0.15;;;;;;;;;;5077017;28;20480;-86
2022/07/12 14:07:37;;;;;;;0.22;0.22;;;;;;;;;;5077005;28;20484;-86
2022/07/12 14:10:05;;;;;;;0.80;0.20;;;;;;;;;;5094458;28;20089;-85
2022/07/12 14:12:32;;;;;;;2.00;0.38;;;;;;;;;;5093969;28;20084;-85
2022/07/12 14:17:39;;;;;;;1.85;0.70;;;;;;;;;;5094378;28;20043;-84
2022/07/12 14:20:07;;;;;;;0.43;0.28;;;;;;;;;;5094108;28;20140;-86
2022/07/12 14:22:35;;;;;;;2.45;0.40;;;;;;;;;;5076421;28;20078;-85
2022/07/12 14:25:06;;;;;;;2.67;0.35;;;;;;;;;;5075999;28;20461;-86
2022/07/12 14:27:33;;;;;;;0.30;0.30;;;;;;;;;;5094306;28;20137;-85
2022/07/12 14:30:01;;;;;;;2.75;0.20;;;;;;;;;;5076502;28;20500;-90
2022/07/12 14:32:28;;;;;;;0.20;0.20;;;;;;;;;;5076293;28;20444;-86
2022/07/12 14:34:55;;;;;;;0.20;0.20;;;;;;;;;;5075955;28;20134;-84
2022/07/12 14:37:22;;;;;;;2.05;0.30;;;;;;;;;;5093332;28;20139;-83
2022/07/12 14:39:49;;;;;;;0.20;0.20;;;;;;;;;;5076067;28;20098;-84
2022/07/12 14:42:16;;;;;;;0.95;0.10;;;;;;;;;;5075817;28;20144;-84
2022/07/12 14:44:44;;;;;;;0.65;0.38;;;;;;;;;;5093362;28;20095;-85
2022/07/12 14:47:18;;;;;;;0.95;0.30;;;;;;;;;;5093444;28;20067;-84
2022/07/12 14:49:46;;;;;;;0.43;0.20;;;;;;;;;;5075302;28;20071;-84
2022/07/12 14:52:13;;;;;;;3.17;0.60;;;;;;;;;;5075001;28;20476;-84
2022/07/12 14:54:40;;;;;;;4.65;0.65;;;;;;;;;;5075515;28;20083;-85
2022/07/12 14:57:07;;;;;;;2.25;0.60;;;;;;;;;;5093694;28;20491;-85
2022/07/12 14:59:34;;;;;;;0.30;0.20;;;;;;;;;;5075446;28;20130;-84
2022/07/12 15:02:01;;;;;;;2.33;0.10;;;;;;;;;;5093357;28;20075;-87
2022/07/12 15:04:29;;;;;;;1.85;0.28;;;;;;;;;;5074865;28;20052;-83